Kernville, Oregon
Current Conditions -  °F | °C
As of 7:15 AM on Wednesday 22 Oct 2014 (Local Time) from KONP Reporting Station
Moderate Rain Moderate Rain  
Wind Chill: 59°   Ceiling: 700
Heat Index: 59°   Visibility: 3mi
Dew Point: 55°   Wind: 15mph
Humidity: 88%   Direction: 210°SSW
Pressure: 29.8"   Gusts: 28mph
Location:  44.9454°N, 123.861°W
Report Text: KONP 221415Z AUTO 21013G24KT 3SM RA BKN007 OVC011 15/13 A2980 RMK AO2 P0004
Loading
Personal Weather Stations






























Interactive Weather Map
Tropical Storm Tracking
New forecast layout! Learn more

10-Day Weather Forecast

Advertisements
Track Severe Weather on mobile